createdAt,value
2023-01-07T00:00:36.326Z,2.80
2023-01-07T00:01:40.873Z,2.85
2023-01-07T00:02:42.578Z,3.92
2023-01-07T00:03:46.197Z,3.17
2023-01-07T00:04:48.198Z,2.67
2023-01-07T00:05:49.897Z,2.63
2023-01-07T00:06:52.996Z,3.30
2023-01-07T00:07:54.935Z,2.38
2023-01-07T00:08:58.500Z,2.60
2023-01-07T00:10:00.465Z,2.03
2023-01-07T00:11:06.465Z,2.33
2023-01-07T00:12:08.196Z,2.60
2023-01-07T00:13:09.840Z,1.92
2023-01-07T00:14:13.990Z,1.80
2023-01-07T00:15:15.749Z,1.80
2023-01-07T00:16:21.953Z,1.80
2023-01-07T00:17:23.680Z,2.63
2023-01-07T00:18:26.794Z,2.10
2023-01-07T00:19:28.654Z,2.00
2023-01-07T00:20:30.697Z,2.10
2023-01-07T00:21:33.231Z,1.70
2023-01-07T00:22:34.951Z,2.20
2023-01-07T00:23:38.759Z,1.60
2023-01-07T00:24:40.291Z,1.80
2023-01-07T00:25:42.466Z,2.15
2023-01-07T00:26:44.465Z,1.80
2023-01-07T00:27:46.501Z,1.55
2023-01-07T00:28:50.363Z,1.90
2023-01-07T00:29:52.089Z,1.75
2023-01-07T00:31:00.335Z,1.90
2023-01-07T00:32:02.387Z,2.00
2023-01-07T00:33:06.175Z,2.22
2023-01-07T00:34:09.637Z,2.20
2023-01-07T00:35:23.348Z,2.17
2023-01-07T00:36:28.921Z,2.42
2023-01-07T00:37:49.295Z,1.83
2023-01-07T00:38:56.052Z,1.60
2023-01-07T00:39:58.255Z,1.60
2023-01-07T00:41:00.336Z,1.90
2023-01-07T00:42:20.582Z,2.17
2023-01-07T00:43:23.217Z,1.33
2023-01-07T00:44:24.885Z,1.65
2023-01-07T00:45:26.968Z,1.50
2023-01-07T00:46:29.730Z,1.40
2023-01-07T00:47:31.468Z,1.20
2023-01-07T00:48:35.978Z,1.45
2023-01-07T00:49:38.189Z,2.88
2023-01-07T00:50:40.346Z,3.50
2023-01-07T00:51:42.384Z,3.60
2023-01-07T00:52:46.883Z,2.92
2023-01-07T00:53:49.537Z,2.80
2023-01-07T00:54:51.522Z,3.40
2023-01-07T00:55:53.414Z,3.10
2023-01-07T00:56:55.161Z,2.55
2023-01-07T00:57:57.834Z,2.13
2023-01-07T00:58:59.771Z,2.25
2023-01-07T01:00:01.634Z,2.10
2023-01-07T01:01:03.761Z,2.05
2023-01-07T01:02:05.617Z,2.13
2023-01-07T01:03:08.560Z,1.83
2023-01-07T01:04:10.399Z,2.30
2023-01-07T01:05:13.255Z,3.13
2023-01-07T01:06:16.393Z,2.90
2023-01-07T01:07:18.223Z,3.17
2023-01-07T01:08:21.555Z,2.83
2023-01-07T01:09:25.674Z,2.90
2023-01-07T01:10:28.642Z,2.30
2023-01-07T01:11:30.476Z,2.30
2023-01-07T01:12:32.523Z,2.65
2023-01-07T01:13:35.401Z,2.50
2023-01-07T01:14:38.651Z,2.40
2023-01-07T01:15:45.324Z,2.42
2023-01-07T01:16:47.286Z,2.15
2023-01-07T01:17:51.084Z,2.08
2023-01-07T01:18:53.304Z,2.30
2023-01-07T01:19:55.223Z,2.30
2023-01-07T01:20:57.219Z,2.10
2023-01-07T01:21:58.877Z,2.70
2023-01-07T01:23:01.909Z,1.90
2023-01-07T01:24:03.653Z,2.20
2023-01-07T01:25:05.615Z,2.13
2023-01-07T01:26:13.847Z,1.80
2023-01-07T01:27:15.874Z,2.10
2023-01-07T01:28:20.818Z,1.92
2023-01-07T01:29:22.443Z,2.17
2023-01-07T01:30:24.411Z,1.80
2023-01-07T01:31:26.573Z,1.48
2023-01-07T01:32:30.065Z,1.67
2023-01-07T01:33:31.699Z,1.90
2023-01-07T01:34:33.470Z,1.38
2023-01-07T01:35:40.213Z,1.38
2023-01-07T01:36:42.378Z,1.67
2023-01-07T01:37:44.143Z,1.50
2023-01-07T01:38:47.041Z,1.10
2023-01-07T01:39:48.756Z,1.33
2023-01-07T01:40:50.655Z,1.48
2023-01-07T01:41:52.540Z,1.02
2023-01-07T01:42:55.421Z,1.58
2023-01-07T01:43:58.412Z,1.20
2023-01-07T01:45:03.172Z,1.30
2023-01-07T01:46:20.343Z,1.63
2023-01-07T01:47:35.166Z,1.30
2023-01-07T01:48:42.564Z,1.10
2023-01-07T01:49:50.829Z,1.23
2023-01-07T01:50:53.455Z,1.48
2023-01-07T01:52:05.812Z,0.95
2023-01-07T01:53:13.877Z,1.17
2023-01-07T01:54:17.814Z,1.45
2023-01-07T01:55:27.908Z,1.10
2023-01-07T01:56:36.076Z,1.33
2023-01-07T01:57:41.778Z,1.15
2023-01-07T01:58:49.317Z,1.27
2023-01-07T01:59:52.653Z,1.13
2023-01-07T02:00:55.420Z,1.30
2023-01-07T02:01:57.625Z,1.45
2023-01-07T02:03:00.179Z,1.13
2023-01-07T02:04:07.778Z,1.35
2023-01-07T02:05:09.858Z,1.10
2023-01-07T02:06:21.456Z,1.63
2023-01-07T02:07:23.714Z,1.90
2023-01-07T02:08:27.112Z,1.77
2023-01-07T02:09:29.127Z,2.20
2023-01-07T02:10:34.082Z,1.80
2023-01-07T02:12:08.737Z,1.70
2023-01-07T02:13:28.170Z,1.65
2023-01-07T02:14:58.313Z,1.73
2023-01-07T02:16:26.279Z,1.60
2023-01-07T02:17:33.635Z,1.50
2023-01-07T02:19:03.491Z,1.40
2023-01-07T02:20:19.929Z,1.65
2023-01-07T02:21:57.816Z,1.10
2023-01-07T02:23:11.961Z,1.65
2023-01-07T02:24:21.678Z,1.60
2023-01-07T02:25:44.955Z,1.40
2023-01-07T02:27:14.219Z,1.45
2023-01-07T02:28:47.262Z,1.23
2023-01-07T02:30:26.410Z,1.20
2023-01-07T02:31:46.808Z,1.30
2023-01-07T02:33:13.133Z,1.33
2023-01-07T02:34:27.409Z,1.15
2023-01-07T02:35:39.558Z,1.25
2023-01-07T02:36:55.607Z,1.10
2023-01-07T02:38:10.029Z,1.35
2023-01-07T02:39:49.338Z,1.50
2023-01-07T02:41:04.732Z,1.40
2023-01-07T02:42:40.059Z,1.15
2023-01-07T02:44:03.776Z,1.10
2023-01-07T02:45:31.584Z,1.15
2023-01-07T02:46:47.404Z,1.02
2023-01-07T02:48:02.916Z,1.20
2023-01-07T02:49:09.517Z,1.20
2023-01-07T02:50:11.142Z,1.52
2023-01-07T02:51:13.114Z,1.10
2023-01-07T02:52:17.815Z,1.60
2023-01-07T02:53:23.173Z,1.05
2023-01-07T02:54:29.102Z,1.30
2023-01-07T02:55:48.033Z,1.40
2023-01-07T02:56:52.202Z,1.35
2023-01-07T02:58:33.523Z,1.20
2023-01-07T02:59:37.758Z,1.17
2023-01-07T03:01:15.257Z,1.08
2023-01-07T03:02:41.617Z,1.10
2023-01-07T03:04:01.737Z,1.20
2023-01-07T03:05:16.698Z,1.30
2023-01-07T03:06:29.648Z,1.20
2023-01-07T03:07:49.898Z,1.20
2023-01-07T03:09:10.575Z,1.15
2023-01-07T03:10:26.547Z,1.02
2023-01-07T03:11:41.805Z,1.52
2023-01-07T03:12:48.126Z,1.05
2023-01-07T03:14:18.648Z,1.20
2023-01-07T03:15:29.138Z,1.38
2023-01-07T03:16:40.324Z,1.67
2023-01-07T03:17:49.778Z,1.35
2023-01-07T03:19:08.470Z,1.30
2023-01-07T03:20:13.663Z,1.60
2023-01-07T03:21:17.969Z,1.30
2023-01-07T03:22:23.659Z,1.42
2023-01-07T03:23:29.317Z,1.55
2023-01-07T03:24:32.978Z,1.20
2023-01-07T03:25:39.607Z,1.48
2023-01-07T03:26:46.455Z,1.25
2023-01-07T03:27:53.319Z,1.30
2023-01-07T03:28:59.644Z,0.98
2023-01-07T03:30:05.011Z,1.20
2023-01-07T03:31:10.454Z,1.15
2023-01-07T03:32:16.423Z,1.00
2023-01-07T03:33:23.338Z,1.35
2023-01-07T03:34:28.570Z,0.90
2023-01-07T03:35:35.436Z,1.35
2023-01-07T03:36:41.376Z,1.00
2023-01-07T03:37:43.245Z,1.08
2023-01-07T03:38:50.064Z,1.17
2023-01-07T03:39:53.219Z,1.10
2023-01-07T03:40:55.585Z,0.88
2023-01-07T03:42:16.367Z,0.90
2023-01-07T03:43:20.538Z,0.90
2023-01-07T03:44:22.698Z,0.95
2023-01-07T03:45:27.163Z,1.00
2023-01-07T03:46:29.521Z,1.38
2023-01-07T03:47:31.275Z,1.20
2023-01-07T03:48:33.252Z,1.20
2023-01-07T03:49:37.056Z,0.90
2023-01-07T03:50:38.804Z,1.10
2023-01-07T03:51:40.424Z,1.10
2023-01-07T03:52:42.175Z,0.90
2023-01-07T03:53:43.822Z,1.30
2023-01-07T03:54:46.733Z,1.40
2023-01-07T03:55:48.421Z,1.20
2023-01-07T03:56:50.570Z,1.00
2023-01-07T03:57:52.241Z,1.10
2023-01-07T03:58:53.969Z,1.00
2023-01-07T03:59:55.637Z,1.10
2023-01-07T04:00:57.504Z,1.00
2023-01-07T04:02:00.358Z,0.90
2023-01-07T04:03:02.210Z,0.75
2023-01-07T04:04:04.217Z,0.80
2023-01-07T04:05:06.684Z,1.00
2023-01-07T04:06:08.641Z,1.00
2023-01-07T04:07:10.221Z,1.45
2023-01-07T04:08:11.826Z,1.15
2023-01-07T04:09:16.131Z,1.10
2023-01-07T04:10:18.252Z,1.40
2023-01-07T04:11:19.962Z,1.30
2023-01-07T04:12:22.004Z,1.00
2023-01-07T04:13:24.565Z,1.15
2023-01-07T04:14:26.163Z,1.00
2023-01-07T04:15:27.938Z,0.93
2023-01-07T04:16:30.528Z,1.00
2023-01-07T04:17:32.149Z,1.08
2023-01-07T04:18:36.967Z,0.98
2023-01-07T04:19:40.984Z,1.05
2023-01-07T04:20:49.076Z,0.80
2023-01-07T04:21:51.517Z,1.00
2023-01-07T04:22:53.103Z,1.00
2023-01-07T04:23:54.792Z,1.00
2023-01-07T04:24:56.518Z,1.17
2023-01-07T04:25:58.195Z,1.50
2023-01-07T04:26:59.728Z,1.60
2023-01-07T04:28:01.782Z,2.28
2023-01-07T04:29:03.747Z,2.75
2023-01-07T04:30:06.252Z,2.70
2023-01-07T04:31:08.324Z,2.95
2023-01-07T04:32:09.998Z,3.67
2023-01-07T04:33:11.963Z,4.15
2023-01-07T04:34:14.668Z,3.85
2023-01-07T04:35:16.398Z,3.45
2023-01-07T04:36:18.363Z,3.45
2023-01-07T04:37:20.345Z,3.25
2023-01-07T04:38:22.221Z,3.90
2023-01-07T04:39:24.021Z,4.18
2023-01-07T04:40:26.241Z,4.28
2023-01-07T04:41:28.337Z,3.80
2023-01-07T04:42:30.235Z,3.33
2023-01-07T04:43:32.216Z,3.70
2023-01-07T04:44:33.818Z,2.90
2023-01-07T04:45:35.676Z,3.42
2023-01-07T04:46:37.645Z,4.40
2023-01-07T04:47:39.564Z,3.75
2023-01-07T04:48:42.485Z,2.97
2023-01-07T04:49:44.170Z,3.78
2023-01-07T04:50:48.484Z,3.58
2023-01-07T04:51:50.063Z,3.05
2023-01-07T04:52:51.821Z,2.60
2023-01-07T04:53:53.622Z,3.45
2023-01-07T04:54:55.493Z,3.70
2023-01-07T04:55:57.142Z,3.35
2023-01-07T04:56:59.388Z,3.22
2023-01-07T04:58:01.319Z,3.10
2023-01-07T04:59:03.315Z,2.88
2023-01-07T05:00:06.842Z,3.10
2023-01-07T05:01:08.981Z,2.17
2023-01-07T05:02:10.864Z,1.83
2023-01-07T05:03:13.475Z,2.10
2023-01-07T05:04:15.267Z,1.50
2023-01-07T05:05:19.120Z,1.52
2023-01-07T05:06:20.717Z,2.05
2023-01-07T05:07:22.410Z,1.65
2023-01-07T05:08:23.939Z,1.55
2023-01-07T05:09:25.634Z,1.70
2023-01-07T05:10:27.339Z,1.48
2023-01-07T05:11:29.139Z,1.25
2023-01-07T05:12:38.066Z,1.45
2023-01-07T05:13:40.166Z,1.00
2023-01-07T05:14:42.071Z,1.10
2023-01-07T05:15:44.306Z,0.98
2023-01-07T05:16:46.164Z,1.30
2023-01-07T05:17:48.200Z,1.00
2023-01-07T05:18:50.133Z,1.17
2023-01-07T05:19:52.395Z,0.80
2023-01-07T05:20:54.320Z,1.38
2023-01-07T05:21:56.289Z,1.30
2023-01-07T05:22:58.251Z,1.17
2023-01-07T05:24:00.500Z,1.20
2023-01-07T05:25:02.015Z,1.48
2023-01-07T05:26:04.554Z,1.38
2023-01-07T05:27:06.347Z,1.50
2023-01-07T05:28:08.124Z,1.20
2023-01-07T05:29:10.259Z,1.65
2023-01-07T05:30:13.410Z,1.60
2023-01-07T05:31:15.635Z,1.35
2023-01-07T05:32:17.623Z,1.73
2023-01-07T05:33:19.345Z,1.70
2023-01-07T05:34:21.366Z,1.30
2023-01-07T05:35:24.290Z,1.30
2023-01-07T05:36:25.935Z,1.48
2023-01-07T05:37:27.797Z,1.75
2023-01-07T05:38:29.552Z,1.90
2023-01-07T05:39:32.346Z,1.70
2023-01-07T05:40:34.422Z,2.17
2023-01-07T05:41:36.129Z,1.90
2023-01-07T05:42:38.015Z,2.30
2023-01-07T05:43:39.653Z,2.20
2023-01-07T05:44:42.531Z,2.15
2023-01-07T05:45:45.749Z,2.47
2023-01-07T05:46:47.524Z,2.80
2023-01-07T05:47:49.917Z,2.05
2023-01-07T05:48:51.683Z,2.50
2023-01-07T05:49:58.414Z,2.70
2023-01-07T05:51:00.323Z,2.45
2023-01-07T05:52:01.900Z,2.40
2023-01-07T05:53:03.576Z,2.17
2023-01-07T05:54:05.596Z,1.90
2023-01-07T05:55:08.708Z,1.90
2023-01-07T05:56:11.140Z,2.28
2023-01-07T05:57:12.942Z,2.15
2023-01-07T05:58:16.098Z,1.80
2023-01-07T05:59:17.854Z,1.58
2023-01-07T06:00:19.631Z,1.70
2023-01-07T06:01:23.283Z,2.70
2023-01-07T06:02:25.119Z,2.50
2023-01-07T06:03:26.901Z,2.90
2023-01-07T06:04:28.793Z,2.67
2023-01-07T06:05:31.006Z,1.85
2023-01-07T06:06:32.613Z,2.15
2023-01-07T06:07:34.519Z,1.60
2023-01-07T06:08:37.282Z,1.20
2023-01-07T06:09:39.316Z,1.50
2023-01-07T06:10:41.770Z,1.50
2023-01-07T06:11:43.821Z,1.30
2023-01-07T06:12:45.775Z,1.27
2023-01-07T06:13:47.729Z,1.75
2023-01-07T06:14:49.918Z,1.95
2023-01-07T06:15:51.806Z,2.00
2023-01-07T06:16:54.219Z,1.50
2023-01-07T06:17:56.569Z,1.30
2023-01-07T06:18:58.482Z,1.55
2023-01-07T06:20:02.918Z,1.60
2023-01-07T06:21:04.878Z,1.30
2023-01-07T06:22:06.713Z,1.20
2023-01-07T06:23:10.700Z,1.38
2023-01-07T06:24:13.031Z,1.55
2023-01-07T06:25:14.824Z,1.65
2023-01-07T06:26:16.573Z,1.17
2023-01-07T06:27:18.277Z,1.30
2023-01-07T06:28:20.467Z,1.58
2023-01-07T06:29:22.065Z,1.02
2023-01-07T06:30:24.219Z,1.25
2023-01-07T06:31:26.098Z,1.60
2023-01-07T06:32:28.161Z,1.13
2023-01-07T06:33:33.336Z,1.30
2023-01-07T06:34:35.245Z,1.50
2023-01-07T06:35:37.384Z,1.00
2023-01-07T06:36:39.267Z,1.10
2023-01-07T06:37:41.327Z,1.45
2023-01-07T06:38:44.150Z,1.85
2023-01-07T06:39:45.943Z,1.45
2023-01-07T06:40:48.191Z,1.75
2023-01-07T06:41:50.342Z,1.10
2023-01-07T06:42:51.901Z,1.25
2023-01-07T06:43:53.777Z,1.10
2023-01-07T06:44:55.888Z,1.25
2023-01-07T06:45:57.657Z,1.30
2023-01-07T06:46:59.458Z,1.70
2023-01-07T06:48:01.275Z,2.00
2023-01-07T06:49:03.632Z,1.50
2023-01-07T06:50:05.660Z,1.20
2023-01-07T06:51:07.657Z,1.52
2023-01-07T06:52:09.642Z,1.45
2023-01-07T06:53:11.576Z,1.63
2023-01-07T06:54:15.166Z,1.45
2023-01-07T06:55:16.929Z,1.45
2023-01-07T06:56:18.721Z,1.30
2023-01-07T06:57:20.990Z,1.55
2023-01-07T06:58:24.344Z,1.25
2023-01-07T06:59:26.215Z,1.02
2023-01-07T07:00:29.237Z,1.42
2023-01-07T07:01:31.551Z,1.10
2023-01-07T07:02:34.950Z,1.38
2023-01-07T07:03:37.313Z,1.50
2023-01-07T07:04:38.968Z,1.23
2023-01-07T07:05:41.750Z,1.10
2023-01-07T07:06:45.339Z,1.42
2023-01-07T07:07:47.997Z,1.20
2023-01-07T07:08:49.616Z,1.17
2023-01-07T07:09:52.928Z,1.35
2023-01-07T07:10:54.629Z,1.02
2023-01-07T07:11:56.490Z,1.10
2023-01-07T07:12:58.282Z,0.95
2023-01-07T07:14:00.088Z,1.10
2023-01-07T07:15:03.170Z,1.45
2023-01-07T07:16:05.168Z,2.45
2023-01-07T07:17:09.309Z,2.30
2023-01-07T07:18:12.034Z,2.65
2023-01-07T07:19:13.960Z,1.70
2023-01-07T07:20:16.301Z,1.10
2023-01-07T07:21:19.278Z,1.10
2023-01-07T07:22:21.888Z,1.20
2023-01-07T07:23:24.103Z,1.10
2023-01-07T07:24:25.695Z,0.90
2023-01-07T07:25:29.134Z,1.10
2023-01-07T07:26:30.992Z,1.50
2023-01-07T07:27:32.738Z,1.02
2023-01-07T07:28:34.602Z,1.25
2023-01-07T07:29:36.200Z,1.00
2023-01-07T07:30:45.735Z,1.40
2023-01-07T07:31:49.703Z,1.00
2023-01-07T07:32:51.230Z,1.42
2023-01-07T07:33:53.086Z,1.80
2023-01-07T07:35:01.024Z,1.52
2023-01-07T07:36:02.842Z,1.42
2023-01-07T07:37:06.073Z,1.00
2023-01-07T07:38:08.691Z,0.70
2023-01-07T07:39:11.962Z,0.85
2023-01-07T07:40:13.677Z,0.80
2023-01-07T07:41:15.441Z,0.98
2023-01-07T07:42:17.132Z,1.30
2023-01-07T07:43:19.728Z,1.10
2023-01-07T07:44:21.325Z,1.35
2023-01-07T07:45:24.609Z,1.52
2023-01-07T07:46:26.278Z,1.48
2023-01-07T07:47:29.085Z,0.98
2023-01-07T07:48:31.468Z,1.30
2023-01-07T07:49:33.149Z,1.20
2023-01-07T07:50:35.933Z,1.85
2023-01-07T07:51:37.768Z,1.60
2023-01-07T07:52:39.387Z,1.65
2023-01-07T07:53:41.025Z,1.80
2023-01-07T07:54:42.682Z,1.35
2023-01-07T07:55:47.353Z,1.38
2023-01-07T07:56:49.047Z,1.52
2023-01-07T07:57:53.824Z,1.08
2023-01-07T07:58:55.591Z,0.73
2023-01-07T07:59:57.520Z,0.90
2023-01-07T08:00:59.141Z,1.27
2023-01-07T08:02:01.224Z,1.40
2023-01-07T08:03:03.152Z,1.00
2023-01-07T08:04:05.292Z,1.25
2023-01-07T08:05:07.929Z,1.15
2023-01-07T08:06:11.722Z,0.90
2023-01-07T08:07:13.544Z,0.88
2023-01-07T08:08:35.302Z,0.90
2023-01-07T08:09:37.269Z,1.20
2023-01-07T08:10:39.859Z,0.80
2023-01-07T08:11:41.761Z,1.23
2023-01-07T08:12:44.864Z,1.40
2023-01-07T08:13:46.809Z,1.30
2023-01-07T08:14:48.751Z,1.02
2023-01-07T08:15:51.914Z,1.80
2023-01-07T08:16:53.851Z,1.30
2023-01-07T08:18:01.129Z,1.10
2023-01-07T08:19:03.153Z,1.55
2023-01-07T08:20:06.425Z,1.48
2023-01-07T08:21:09.528Z,1.65
2023-01-07T08:22:11.416Z,1.70
2023-01-07T08:23:13.230Z,2.25
2023-01-07T08:24:15.728Z,2.58
2023-01-07T08:25:20.423Z,3.70
2023-01-07T08:26:22.519Z,2.90
2023-01-07T08:27:24.668Z,3.30
2023-01-07T08:28:26.508Z,2.05
2023-01-07T08:29:28.384Z,2.40
2023-01-07T08:30:30.906Z,1.73
2023-01-07T08:31:33.151Z,1.40
2023-01-07T08:32:35.139Z,1.55
2023-01-07T08:33:40.028Z,1.33
2023-01-07T08:34:41.986Z,1.27
2023-01-07T08:35:44.357Z,1.13
2023-01-07T08:36:45.963Z,1.20
2023-01-07T08:37:48.990Z,1.40
2023-01-07T08:38:56.030Z,1.27
2023-01-07T08:39:57.806Z,1.42
2023-01-07T08:41:00.217Z,1.83
2023-01-07T08:42:02.051Z,0.75
2023-01-07T08:43:06.114Z,1.10
2023-01-07T08:44:07.909Z,0.90
2023-01-07T08:45:12.241Z,1.10
2023-01-07T08:46:14.608Z,1.27
2023-01-07T08:47:16.599Z,1.08
2023-01-07T08:48:20.485Z,1.50
2023-01-07T08:49:22.992Z,1.95
2023-01-07T08:50:26.830Z,1.33
2023-01-07T08:51:28.438Z,1.83
2023-01-07T08:52:30.703Z,1.20
2023-01-07T08:53:33.239Z,1.10
2023-01-07T08:54:35.023Z,1.05
2023-01-07T08:55:36.908Z,0.95
2023-01-07T08:56:38.519Z,0.82
2023-01-07T08:57:40.147Z,1.20
2023-01-07T08:58:41.840Z,0.95
2023-01-07T08:59:43.928Z,1.60
2023-01-07T09:00:47.612Z,1.70
2023-01-07T09:01:49.729Z,1.00
2023-01-07T09:02:51.944Z,1.90
2023-01-07T09:03:55.088Z,1.92
2023-01-07T09:04:56.978Z,1.63
2023-01-07T09:05:59.249Z,1.70
2023-01-07T09:07:00.881Z,1.55
2023-01-07T09:08:03.794Z,1.45
2023-01-07T09:09:06.187Z,1.40
2023-01-07T09:10:08.597Z,1.40
2023-01-07T09:11:10.393Z,1.30
2023-01-07T09:12:15.125Z,1.42
2023-01-07T09:13:17.348Z,1.70
2023-01-07T09:14:19.306Z,0.98
2023-01-07T09:15:21.014Z,1.70
2023-01-07T09:16:24.057Z,1.80
2023-01-07T09:17:28.355Z,2.80
2023-01-07T09:18:30.224Z,2.03
2023-01-07T09:19:32.628Z,2.70
2023-01-07T09:20:34.352Z,2.35
2023-01-07T09:21:35.952Z,2.05
2023-01-07T09:22:38.262Z,1.90
2023-01-07T09:23:40.509Z,2.92
2023-01-07T09:24:42.162Z,2.60
2023-01-07T09:25:44.388Z,4.23
2023-01-07T09:26:46.250Z,3.42
2023-01-07T09:27:51.891Z,4.30
2023-01-07T09:28:53.588Z,3.20
2023-01-07T09:29:58.480Z,3.47
2023-01-07T09:31:00.929Z,3.25
2023-01-07T09:32:02.880Z,3.47
2023-01-07T09:33:05.545Z,3.10
2023-01-07T09:34:07.515Z,4.13
2023-01-07T09:35:11.617Z,3.45
2023-01-07T09:36:13.608Z,5.43
2023-01-07T09:37:17.217Z,3.33
2023-01-07T09:38:18.966Z,2.55
2023-01-07T09:39:20.555Z,2.30
2023-01-07T09:40:29.528Z,1.67
2023-01-07T09:41:47.206Z,3.03
2023-01-07T09:43:13.257Z,1.98
2023-01-07T09:44:32.564Z,1.30
2023-01-07T09:45:45.341Z,1.40
2023-01-07T09:46:51.693Z,1.50
2023-01-07T09:47:57.478Z,1.40
2023-01-07T09:49:03.855Z,1.63
2023-01-07T09:50:34.352Z,1.37
2023-01-07T09:51:44.121Z,1.50
2023-01-07T09:52:50.413Z,2.20
2023-01-07T09:53:57.159Z,2.15
2023-01-07T09:55:06.813Z,1.90
2023-01-07T09:56:28.732Z,1.70
2023-01-07T09:57:30.471Z,1.57
2023-01-07T09:58:32.655Z,1.47
2023-01-07T09:59:34.333Z,1.60
2023-01-07T10:00:43.823Z,2.27
2023-01-07T10:01:53.581Z,2.03
2023-01-07T10:03:22.677Z,1.30
2023-01-07T10:05:02.432Z,1.60
2023-01-07T10:06:42.666Z,1.53
2023-01-07T10:08:31.189Z,1.45
2023-01-07T10:09:45.285Z,2.30
2023-01-07T10:10:53.601Z,1.60
2023-01-07T10:12:01.440Z,1.57
2023-01-07T10:13:37.136Z,2.80
2023-01-07T10:14:38.896Z,1.60
2023-01-07T10:15:54.471Z,1.40
2023-01-07T10:17:36.588Z,1.90
2023-01-07T10:18:47.359Z,1.93
2023-01-07T10:20:04.197Z,0.97
2023-01-07T10:21:24.927Z,1.20
2023-01-07T10:22:52.413Z,1.33
2023-01-07T10:24:04.466Z,1.30
2023-01-07T10:25:19.884Z,1.13
2023-01-07T10:26:39.327Z,1.40
2023-01-07T10:27:44.340Z,2.07
2023-01-07T10:28:59.181Z,2.63
2023-01-07T10:30:04.404Z,2.00
2023-01-07T10:31:16.489Z,2.23
2023-01-07T10:32:21.671Z,2.37
2023-01-07T10:33:27.064Z,3.00
2023-01-07T10:34:38.567Z,3.10
2023-01-07T10:35:41.314Z,3.13
2023-01-07T10:36:57.931Z,2.60
2023-01-07T10:38:02.195Z,2.03
2023-01-07T10:39:24.905Z,1.97
2023-01-07T10:40:44.542Z,3.27
2023-01-07T10:42:03.885Z,1.90
2023-01-07T10:43:30.761Z,1.90
2023-01-07T10:45:20.684Z,2.40
2023-01-07T10:46:42.448Z,2.03
2023-01-07T10:48:07.086Z,1.60
2023-01-07T10:49:21.739Z,3.30
2023-01-07T10:50:31.446Z,3.33
2023-01-07T10:52:07.038Z,3.63
2023-01-07T10:53:27.959Z,2.67
2023-01-07T10:55:11.328Z,2.60
2023-01-07T10:56:30.927Z,2.97
2023-01-07T10:57:34.102Z,2.60
2023-01-07T10:58:46.131Z,2.43
2023-01-07T10:59:50.096Z,1.77
2023-01-07T11:00:52.313Z,1.47
2023-01-07T11:01:58.362Z,1.87
2023-01-07T11:03:00.848Z,1.20
2023-01-07T11:04:03.459Z,1.30
2023-01-07T11:05:08.390Z,1.10
2023-01-07T11:06:15.754Z,1.07
2023-01-07T11:07:44.402Z,1.47
2023-01-07T11:08:47.226Z,1.30
2023-01-07T11:09:49.763Z,1.63
2023-01-07T11:10:51.679Z,1.50
2023-01-07T11:11:55.415Z,1.40
2023-01-07T11:13:19.257Z,1.10
2023-01-07T11:14:27.934Z,1.43
2023-01-07T11:15:31.599Z,1.40
2023-01-07T11:16:43.633Z,1.30
2023-01-07T11:17:56.325Z,1.33
2023-01-07T11:19:09.418Z,1.00
2023-01-07T11:20:12.669Z,1.30
2023-01-07T11:21:44.664Z,1.60
2023-01-07T11:22:46.698Z,1.37
2023-01-07T11:23:50.045Z,1.40
2023-01-07T11:24:52.811Z,1.20
2023-01-07T11:25:55.977Z,1.50
2023-01-07T11:27:05.025Z,1.20
2023-01-07T11:28:19.213Z,1.23
2023-01-07T11:29:25.542Z,1.30
2023-01-07T11:30:31.258Z,1.33
2023-01-07T11:32:00.138Z,1.80
2023-01-07T11:33:06.253Z,1.47
2023-01-07T11:34:24.167Z,2.03
2023-01-07T11:35:30.083Z,2.57
2023-01-07T11:36:42.931Z,2.23
2023-01-07T11:37:47.084Z,1.07
2023-01-07T11:38:48.771Z,1.20
2023-01-07T11:39:59.422Z,1.33
2023-01-07T11:41:01.319Z,0.90
2023-01-07T11:42:36.961Z,1.30
2023-01-07T11:43:40.824Z,1.40
2023-01-07T11:44:42.707Z,1.40
2023-01-07T11:46:19.418Z,1.33
2023-01-07T11:47:23.444Z,1.30
2023-01-07T11:48:31.971Z,1.47
2023-01-07T11:49:44.237Z,1.20
2023-01-07T11:51:01.318Z,1.40
2023-01-07T11:52:03.447Z,1.43
2023-01-07T11:53:12.699Z,1.70
2023-01-07T11:54:28.446Z,2.27
2023-01-07T11:55:30.627Z,1.23
2023-01-07T11:56:34.208Z,1.53
2023-01-07T11:57:36.519Z,1.57
2023-01-07T11:58:49.294Z,1.30
2023-01-07T12:00:15.606Z,1.13
2023-01-07T12:01:24.725Z,1.43
2023-01-07T12:02:27.759Z,1.37
2023-01-07T12:03:29.530Z,1.17
2023-01-07T12:04:36.338Z,1.63
2023-01-07T12:05:40.524Z,1.63
2023-01-07T12:06:45.624Z,1.20
2023-01-07T12:07:50.491Z,1.30
2023-01-07T12:09:20.629Z,1.10
2023-01-07T12:10:33.310Z,1.00
2023-01-07T12:11:40.179Z,1.20
2023-01-07T12:12:44.784Z,1.17
2023-01-07T12:13:53.354Z,1.23
2023-01-07T12:14:56.303Z,1.20
2023-01-07T12:16:02.769Z,1.27
2023-01-07T12:17:23.674Z,0.83
2023-01-07T12:18:26.144Z,1.17
2023-01-07T12:20:04.393Z,1.40
2023-01-07T12:21:32.631Z,1.23
2023-01-07T12:22:52.582Z,1.70
2023-01-07T12:24:03.347Z,1.23
2023-01-07T12:25:05.254Z,1.67
2023-01-07T12:26:22.580Z,1.67
2023-01-07T12:27:53.249Z,1.50
2023-01-07T12:29:36.795Z,1.10
2023-01-07T12:31:07.699Z,1.20
2023-01-07T12:32:27.985Z,1.53
2023-01-07T12:34:08.647Z,1.60
2023-01-07T12:35:20.484Z,1.40
2023-01-07T12:36:52.697Z,1.23
2023-01-07T12:38:06.527Z,1.20
2023-01-07T12:39:16.058Z,1.33
2023-01-07T12:40:28.749Z,1.30
2023-01-07T12:41:39.527Z,1.43
2023-01-07T12:42:50.540Z,1.10
2023-01-07T12:43:59.185Z,1.10
2023-01-07T12:45:06.473Z,1.40
2023-01-07T12:46:15.382Z,1.57
2023-01-07T12:47:43.283Z,1.47
2023-01-07T12:49:02.376Z,1.80
2023-01-07T12:50:04.328Z,1.57
2023-01-07T12:51:39.896Z,1.50
2023-01-07T12:52:46.058Z,1.80
2023-01-07T12:53:56.184Z,1.63
2023-01-07T12:55:02.607Z,1.60
2023-01-07T12:56:23.756Z,2.03
2023-01-07T12:57:31.234Z,1.70
2023-01-07T12:58:33.195Z,1.93
2023-01-07T12:59:46.418Z,1.60
2023-01-07T13:00:58.153Z,1.53
2023-01-07T13:02:22.491Z,1.73
2023-01-07T13:03:27.177Z,1.60
2023-01-07T13:05:00.731Z,1.83
2023-01-07T13:06:14.642Z,2.00
2023-01-07T13:07:32.330Z,2.07
2023-01-07T13:08:44.091Z,1.60
2023-01-07T13:09:54.225Z,1.63
2023-01-07T13:11:02.698Z,1.63
2023-01-07T13:12:45.959Z,1.90
2023-01-07T13:13:52.394Z,4.73
2023-01-07T13:14:58.883Z,13.13
2023-01-07T13:16:00.929Z,5.80
2023-01-07T13:17:26.454Z,1.83
2023-01-07T13:18:29.631Z,1.40
2023-01-07T13:19:31.916Z,1.50
2023-01-07T13:21:01.955Z,1.53
2023-01-07T13:22:04.606Z,1.37
2023-01-07T13:23:09.218Z,2.20
2023-01-07T13:24:19.092Z,1.40
2023-01-07T13:25:49.774Z,1.80
2023-01-07T13:27:23.942Z,1.50
2023-01-07T13:28:44.055Z,1.63
2023-01-07T13:29:59.325Z,1.90
2023-01-07T13:31:23.919Z,2.10
2023-01-07T13:32:45.883Z,1.57
2023-01-07T13:34:03.108Z,1.90
2023-01-07T13:35:36.759Z,1.70
2023-01-07T13:37:13.835Z,1.70
2023-01-07T13:38:43.751Z,1.50
2023-01-07T13:40:17.340Z,1.77
2023-01-07T13:41:28.351Z,2.77
2023-01-07T13:42:52.824Z,1.60
2023-01-07T13:44:33.002Z,1.53
2023-01-07T13:45:45.507Z,1.80
2023-01-07T13:46:48.745Z,1.70
2023-01-07T13:47:53.059Z,1.60
2023-01-07T13:48:55.117Z,1.50
2023-01-07T13:50:00.412Z,1.90
2023-01-07T13:51:05.860Z,1.67
2023-01-07T13:52:19.854Z,1.47
2023-01-07T13:53:32.847Z,1.50
2023-01-07T13:54:50.545Z,1.77
2023-01-07T13:55:53.517Z,1.53
2023-01-07T13:56:55.648Z,1.50
2023-01-07T13:57:57.845Z,1.90
2023-01-07T13:59:00.868Z,1.50
2023-01-07T14:00:06.828Z,1.70
2023-01-07T14:01:18.833Z,1.67
2023-01-07T14:02:23.795Z,1.53
2023-01-07T14:03:28.478Z,1.57
2023-01-07T14:04:35.413Z,1.90
2023-01-07T14:05:40.082Z,1.60
2023-01-07T14:06:51.221Z,1.37
2023-01-07T14:08:04.235Z,1.70
2023-01-07T14:09:11.490Z,1.60
2023-01-07T14:10:24.836Z,1.87
2023-01-07T14:11:30.223Z,1.70
2023-01-07T14:13:02.072Z,1.37
2023-01-07T14:14:24.741Z,1.90
2023-01-07T14:15:34.295Z,1.63
2023-01-07T14:16:39.237Z,1.97
2023-01-07T14:17:53.138Z,1.80
2023-01-07T14:19:06.838Z,1.83
2023-01-07T14:20:24.436Z,2.10
2023-01-07T14:21:28.906Z,1.90
2023-01-07T14:23:09.251Z,1.77
2023-01-07T14:24:30.130Z,1.80
2023-01-07T14:26:17.192Z,2.10
2023-01-07T14:27:35.100Z,2.50
2023-01-07T14:28:59.118Z,2.90
2023-01-07T14:30:17.260Z,2.87
2023-01-07T14:31:30.505Z,2.53
2023-01-07T14:32:37.576Z,2.17
2023-01-07T14:33:49.647Z,2.57
2023-01-07T14:35:27.434Z,5.57
2023-01-07T14:37:01.381Z,2.47
2023-01-07T14:38:30.084Z,2.60
2023-01-07T14:39:39.395Z,2.20
2023-01-07T14:40:41.063Z,2.17
2023-01-07T14:42:20.519Z,2.43
2023-01-07T14:43:40.725Z,2.60
2023-01-07T14:44:42.528Z,2.57
2023-01-07T14:45:44.195Z,2.60
2023-01-07T14:46:47.539Z,2.50
2023-01-07T14:47:49.440Z,2.67
2023-01-07T14:49:03.550Z,2.60
2023-01-07T14:50:19.669Z,3.03
2023-01-07T14:51:44.830Z,2.80
2023-01-07T14:53:24.565Z,3.00
2023-01-07T14:55:02.953Z,2.43
2023-01-07T14:56:10.456Z,3.47
2023-01-07T14:57:40.835Z,2.70
2023-01-07T14:58:51.731Z,2.83
2023-01-07T14:59:53.287Z,3.10
2023-01-07T15:01:01.159Z,3.83
2023-01-07T15:02:37.307Z,4.70